sensor_id;sensor_type;location;lat;lon;timestamp;P1;durP1;ratioP1;P2;durP2;ratioP2
32876;SDS011;19226;51.600;8.034;2023-05-23T00:01:38;17.88;;;9.15;;
32876;SDS011;19226;51.600;8.034;2023-05-23T00:04:23;14.90;;;10.02;;
32876;SDS011;19226;51.600;8.034;2023-05-23T00:07:09;16.98;;;10.18;;
32876;SDS011;19226;51.600;8.034;2023-05-23T00:09:54;11.20;;;9.48;;
32876;SDS011;19226;51.600;8.034;2023-05-23T00:12:38;19.20;;;9.60;;
32876;SDS011;19226;51.600;8.034;2023-05-23T00:15:25;12.27;;;9.10;;
32876;SDS011;19226;51.600;8.034;2023-05-23T00:18:10;12.00;;;9.63;;
32876;SDS011;19226;51.600;8.034;2023-05-23T00:20:55;15.98;;;9.35;;
32876;SDS011;19226;51.600;8.034;2023-05-23T00:23:40;17.55;;;10.23;;
32876;SDS011;19226;51.600;8.034;2023-05-23T00:26:27;20.83;;;10.40;;
32876;SDS011;19226;51.600;8.034;2023-05-23T00:29:13;15.57;;;9.80;;
32876;SDS011;19226;51.600;8.034;2023-05-23T00:31:59;15.35;;;10.25;;
32876;SDS011;19226;51.600;8.034;2023-05-23T00:34:44;12.15;;;9.38;;
32876;SDS011;19226;51.600;8.034;2023-05-23T00:37:29;12.55;;;9.52;;
32876;SDS011;19226;51.600;8.034;2023-05-23T00:40:15;15.85;;;10.18;;
32876;SDS011;19226;51.600;8.034;2023-05-23T00:43:00;13.63;;;10.23;;
32876;SDS011;19226;51.600;8.034;2023-05-23T00:45:44;14.45;;;10.38;;
32876;SDS011;19226;51.600;8.034;2023-05-23T00:48:29;19.08;;;10.60;;
32876;SDS011;19226;51.600;8.034;2023-05-23T00:51:14;22.15;;;11.27;;
32876;SDS011;19226;51.600;8.034;2023-05-23T00:53:59;14.00;;;10.38;;
32876;SDS011;19226;51.600;8.034;2023-05-23T00:56:45;26.35;;;11.70;;
32876;SDS011;19226;51.600;8.034;2023-05-23T00:59:31;16.55;;;10.80;;
32876;SDS011;19226;51.600;8.034;2023-05-23T01:02:16;15.55;;;10.32;;
32876;SDS011;19226;51.600;8.034;2023-05-23T01:05:01;15.95;;;10.63;;
32876;SDS011;19226;51.600;8.034;2023-05-23T01:07:46;14.02;;;10.55;;
32876;SDS011;19226;51.600;8.034;2023-05-23T01:10:31;20.38;;;10.73;;
32876;SDS011;19226;51.600;8.034;2023-05-23T01:13:20;12.52;;;9.98;;
32876;SDS011;19226;51.600;8.034;2023-05-23T01:22:40;12.60;;;8.80;;
32876;SDS011;19226;51.600;8.034;2023-05-23T01:26:09;15.85;;;8.38;;
32876;SDS011;19226;51.600;8.034;2023-05-23T01:32:24;11.82;;;7.25;;
32876;SDS011;19226;51.600;8.034;2023-05-23T01:35:11;12.30;;;6.60;;
32876;SDS011;19226;51.600;8.034;2023-05-23T01:37:58;10.40;;;6.15;;
32876;SDS011;19226;51.600;8.034;2023-05-23T01:40:43;7.47;;;6.70;;
32876;SDS011;19226;51.600;8.034;2023-05-23T01:43:28;8.48;;;5.72;;
32876;SDS011;19226;51.600;8.034;2023-05-23T01:46:12;6.43;;;5.82;;
32876;SDS011;19226;51.600;8.034;2023-05-23T01:48:59;7.78;;;5.70;;
32876;SDS011;19226;51.600;8.034;2023-05-23T01:51:45;11.10;;;6.43;;
32876;SDS011;19226;51.600;8.034;2023-05-23T01:54:30;7.90;;;5.97;;
32876;SDS011;19226;51.600;8.034;2023-05-23T01:57:18;7.30;;;6.28;;
32876;SDS011;19226;51.600;8.034;2023-05-23T02:00:03;6.90;;;6.18;;
32876;SDS011;19226;51.600;8.034;2023-05-23T02:02:57;9.25;;;6.95;;
32876;SDS011;19226;51.600;8.034;2023-05-23T02:05:42;9.25;;;6.63;;
32876;SDS011;19226;51.600;8.034;2023-05-23T02:08:27;11.30;;;7.22;;
32876;SDS011;19226;51.600;8.034;2023-05-23T02:11:11;9.70;;;7.03;;
32876;SDS011;19226;51.600;8.034;2023-05-23T02:13:57;8.95;;;6.65;;
32876;SDS011;19226;51.600;8.034;2023-05-23T02:16:41;12.98;;;6.85;;
32876;SDS011;19226;51.600;8.034;2023-05-23T02:19:26;12.32;;;7.03;;
32876;SDS011;19226;51.600;8.034;2023-05-23T02:22:11;8.55;;;6.43;;
32876;SDS011;19226;51.600;8.034;2023-05-23T02:24:56;9.98;;;7.07;;
32876;SDS011;19226;51.600;8.034;2023-05-23T02:27:41;8.75;;;6.85;;
32876;SDS011;19226;51.600;8.034;2023-05-23T02:30:25;12.07;;;6.50;;
32876;SDS011;19226;51.600;8.034;2023-05-23T02:33:10;10.63;;;6.57;;
32876;SDS011;19226;51.600;8.034;2023-05-23T02:35:55;8.82;;;7.32;;
32876;SDS011;19226;51.600;8.034;2023-05-23T02:38:39;7.72;;;6.30;;
32876;SDS011;19226;51.600;8.034;2023-05-23T02:41:24;8.00;;;7.13;;
32876;SDS011;19226;51.600;8.034;2023-05-23T02:44:10;11.02;;;7.25;;
32876;SDS011;19226;51.600;8.034;2023-05-23T02:46:54;12.52;;;7.65;;
32876;SDS011;19226;51.600;8.034;2023-05-23T02:49:39;10.68;;;7.22;;
32876;SDS011;19226;51.600;8.034;2023-05-23T02:52:24;10.30;;;7.75;;
32876;SDS011;19226;51.600;8.034;2023-05-23T02:55:09;10.25;;;7.75;;
32876;SDS011;19226;51.600;8.034;2023-05-23T02:57:58;10.48;;;7.20;;
32876;SDS011;19226;51.600;8.034;2023-05-23T03:00:42;13.80;;;7.72;;
32876;SDS011;19226;51.600;8.034;2023-05-23T03:03:27;11.45;;;7.38;;
32876;SDS011;19226;51.600;8.034;2023-05-23T03:06:13;13.45;;;7.15;;
32876;SDS011;19226;51.600;8.034;2023-05-23T03:08:59;15.52;;;7.88;;
32876;SDS011;19226;51.600;8.034;2023-05-23T03:11:44;11.50;;;7.45;;
32876;SDS011;19226;51.600;8.034;2023-05-23T03:14:29;9.60;;;8.32;;
32876;SDS011;19226;51.600;8.034;2023-05-23T03:17:13;7.90;;;7.13;;
32876;SDS011;19226;51.600;8.034;2023-05-23T03:19:58;17.25;;;7.88;;
32876;SDS011;19226;51.600;8.034;2023-05-23T03:22:42;12.73;;;8.07;;
32876;SDS011;19226;51.600;8.034;2023-05-23T03:25:28;12.93;;;8.45;;
32876;SDS011;19226;51.600;8.034;2023-05-23T03:28:12;16.25;;;8.30;;
32876;SDS011;19226;51.600;8.034;2023-05-23T03:30:57;11.55;;;7.90;;
32876;SDS011;19226;51.600;8.034;2023-05-23T03:33:42;11.43;;;8.52;;
32876;SDS011;19226;51.600;8.034;2023-05-23T03:36:27;14.45;;;8.65;;
32876;SDS011;19226;51.600;8.034;2023-05-23T03:39:12;15.98;;;8.32;;
32876;SDS011;19226;51.600;8.034;2023-05-23T03:41:56;12.20;;;9.05;;
32876;SDS011;19226;51.600;8.034;2023-05-23T03:44:41;14.30;;;9.50;;
32876;SDS011;19226;51.600;8.034;2023-05-23T03:47:26;16.17;;;10.10;;
32876;SDS011;19226;51.600;8.034;2023-05-23T03:50:12;16.40;;;10.15;;
32876;SDS011;19226;51.600;8.034;2023-05-23T03:52:56;13.38;;;9.95;;
32876;SDS011;19226;51.600;8.034;2023-05-23T03:55:42;12.55;;;9.63;;
32876;SDS011;19226;51.600;8.034;2023-05-23T03:58:26;14.60;;;9.63;;
32876;SDS011;19226;51.600;8.034;2023-05-23T04:01:16;18.50;;;11.15;;
32876;SDS011;19226;51.600;8.034;2023-05-23T04:04:00;16.58;;;10.93;;
32876;SDS011;19226;51.600;8.034;2023-05-23T04:06:50;21.20;;;12.27;;
32876;SDS011;19226;51.600;8.034;2023-05-23T04:09:34;19.58;;;12.40;;
32876;SDS011;19226;51.600;8.034;2023-05-23T04:12:21;18.90;;;12.52;;
32876;SDS011;19226;51.600;8.034;2023-05-23T04:15:06;24.90;;;14.32;;
32876;SDS011;19226;51.600;8.034;2023-05-23T04:17:54;28.83;;;15.43;;
32876;SDS011;19226;51.600;8.034;2023-05-23T04:20:40;24.85;;;14.50;;
32876;SDS011;19226;51.600;8.034;2023-05-23T04:23:25;28.08;;;17.45;;
32876;SDS011;19226;51.600;8.034;2023-05-23T04:26:11;35.53;;;17.58;;
32876;SDS011;19226;51.600;8.034;2023-05-23T04:29:02;26.95;;;16.48;;
32876;SDS011;19226;51.600;8.034;2023-05-23T04:31:49;39.78;;;18.50;;
32876;SDS011;19226;51.600;8.034;2023-05-23T04:34:33;29.92;;;16.45;;
32876;SDS011;19226;51.600;8.034;2023-05-23T04:37:18;31.13;;;17.50;;
32876;SDS011;19226;51.600;8.034;2023-05-23T04:40:05;31.25;;;16.73;;
32876;SDS011;19226;51.600;8.034;2023-05-23T04:43:14;28.30;;;17.17;;
32876;SDS011;19226;51.600;8.034;2023-05-23T04:46:08;26.33;;;16.63;;
32876;SDS011;19226;51.600;8.034;2023-05-23T04:49:00;22.02;;;14.38;;
32876;SDS011;19226;51.600;8.034;2023-05-23T04:51:45;22.73;;;13.48;;
32876;SDS011;19226;51.600;8.034;2023-05-23T04:54:40;23.45;;;14.38;;
32876;SDS011;19226;51.600;8.034;2023-05-23T04:57:27;23.00;;;14.30;;
32876;SDS011;19226;51.600;8.034;2023-05-23T05:00:12;25.75;;;13.98;;
32876;SDS011;19226;51.600;8.034;2023-05-23T05:02:57;21.90;;;13.65;;
32876;SDS011;19226;51.600;8.034;2023-05-23T05:05:45;24.98;;;13.73;;
32876;SDS011;19226;51.600;8.034;2023-05-23T05:08:29;20.40;;;12.70;;
32876;SDS011;19226;51.600;8.034;2023-05-23T05:11:14;18.10;;;11.35;;
32876;SDS011;19226;51.600;8.034;2023-05-23T05:13:59;17.10;;;11.77;;
32876;SDS011;19226;51.600;8.034;2023-05-23T05:16:43;19.65;;;11.85;;
32876;SDS011;19226;51.600;8.034;2023-05-23T05:19:30;19.30;;;11.93;;
32876;SDS011;19226;51.600;8.034;2023-05-23T05:22:14;19.42;;;11.27;;
32876;SDS011;19226;51.600;8.034;2023-05-23T05:24:59;21.77;;;10.52;;
32876;SDS011;19226;51.600;8.034;2023-05-23T05:27:44;23.88;;;11.10;;
32876;SDS011;19226;51.600;8.034;2023-05-23T05:30:32;17.10;;;9.95;;
32876;SDS011;19226;51.600;8.034;2023-05-23T05:33:19;15.98;;;9.88;;
32876;SDS011;19226;51.600;8.034;2023-05-23T05:36:07;19.50;;;10.30;;
32876;SDS011;19226;51.600;8.034;2023-05-23T05:38:51;15.60;;;10.27;;
32876;SDS011;19226;51.600;8.034;2023-05-23T05:41:37;16.95;;;10.60;;
32876;SDS011;19226;51.600;8.034;2023-05-23T05:44:23;17.02;;;10.77;;
32876;SDS011;19226;51.600;8.034;2023-05-23T05:47:08;17.33;;;10.40;;
32876;SDS011;19226;51.600;8.034;2023-05-23T05:49:52;21.23;;;11.52;;
32876;SDS011;19226;51.600;8.034;2023-05-23T05:52:36;23.52;;;12.02;;
32876;SDS011;19226;51.600;8.034;2023-05-23T05:55:23;17.88;;;12.13;;
32876;SDS011;19226;51.600;8.034;2023-05-23T05:58:11;17.23;;;12.00;;
32876;SDS011;19226;51.600;8.034;2023-05-23T06:01:17;23.13;;;12.13;;
32876;SDS011;19226;51.600;8.034;2023-05-23T06:04:01;19.52;;;11.95;;
32876;SDS011;19226;51.600;8.034;2023-05-23T06:06:46;20.65;;;12.35;;
32876;SDS011;19226;51.600;8.034;2023-05-23T06:09:30;25.10;;;13.25;;
32876;SDS011;19226;51.600;8.034;2023-05-23T06:12:15;21.50;;;11.60;;
32876;SDS011;19226;51.600;8.034;2023-05-23T06:14:59;21.00;;;11.75;;
32876;SDS011;19226;51.600;8.034;2023-05-23T06:17:44;25.67;;;12.02;;
32876;SDS011;19226;51.600;8.034;2023-05-23T06:20:29;26.50;;;13.05;;
32876;SDS011;19226;51.600;8.034;2023-05-23T06:23:15;27.35;;;11.88;;
32876;SDS011;19226;51.600;8.034;2023-05-23T06:26:00;27.73;;;13.30;;
32876;SDS011;19226;51.600;8.034;2023-05-23T06:28:45;28.75;;;12.95;;
32876;SDS011;19226;51.600;8.034;2023-05-23T06:31:30;21.33;;;12.38;;
32876;SDS011;19226;51.600;8.034;2023-05-23T06:34:15;30.17;;;14.43;;
32876;SDS011;19226;51.600;8.034;2023-05-23T06:37:00;31.10;;;13.77;;
32876;SDS011;19226;51.600;8.034;2023-05-23T06:39:44;25.92;;;13.30;;
32876;SDS011;19226;51.600;8.034;2023-05-23T06:42:29;22.10;;;13.98;;
32876;SDS011;19226;51.600;8.034;2023-05-23T06:45:21;24.27;;;13.77;;
32876;SDS011;19226;51.600;8.034;2023-05-23T06:48:06;24.52;;;13.18;;
32876;SDS011;19226;51.600;8.034;2023-05-23T06:50:52;25.23;;;14.38;;
32876;SDS011;19226;51.600;8.034;2023-05-23T06:53:38;32.22;;;14.63;;
32876;SDS011;19226;51.600;8.034;2023-05-23T06:56:23;33.88;;;14.82;;
32876;SDS011;19226;51.600;8.034;2023-05-23T06:59:13;29.98;;;13.50;;
32876;SDS011;19226;51.600;8.034;2023-05-23T07:01:57;22.52;;;12.18;;
32876;SDS011;19226;51.600;8.034;2023-05-23T07:04:42;18.15;;;10.60;;
32876;SDS011;19226;51.600;8.034;2023-05-23T07:07:42;16.58;;;9.88;;
32876;SDS011;19226;51.600;8.034;2023-05-23T07:10:26;20.20;;;8.32;;
32876;SDS011;19226;51.600;8.034;2023-05-23T07:13:16;10.60;;;6.72;;
32876;SDS011;19226;51.600;8.034;2023-05-23T07:16:01;7.63;;;6.15;;
32876;SDS011;19226;51.600;8.034;2023-05-23T07:18:47;10.77;;;5.68;;
32876;SDS011;19226;51.600;8.034;2023-05-23T07:21:32;11.80;;;6.25;;
32876;SDS011;19226;51.600;8.034;2023-05-23T07:24:16;8.90;;;5.53;;
32876;SDS011;19226;51.600;8.034;2023-05-23T07:27:01;14.32;;;5.05;;
32876;SDS011;19226;51.600;8.034;2023-05-23T07:29:47;5.57;;;3.22;;
32876;SDS011;19226;51.600;8.034;2023-05-23T07:32:31;4.60;;;3.55;;
32876;SDS011;19226;51.600;8.034;2023-05-23T07:35:17;9.90;;;3.10;;
32876;SDS011;19226;51.600;8.034;2023-05-23T07:38:01;4.68;;;3.40;;
32876;SDS011;19226;51.600;8.034;2023-05-23T07:40:47;5.32;;;3.60;;
32876;SDS011;19226;51.600;8.034;2023-05-23T07:43:31;5.35;;;3.75;;
32876;SDS011;19226;51.600;8.034;2023-05-23T07:46:16;4.22;;;3.28;;
32876;SDS011;19226;51.600;8.034;2023-05-23T07:49:01;3.53;;;3.22;;
32876;SDS011;19226;51.600;8.034;2023-05-23T07:51:45;3.92;;;2.60;;
32876;SDS011;19226;51.600;8.034;2023-05-23T07:54:30;4.10;;;3.10;;
32876;SDS011;19226;51.600;8.034;2023-05-23T07:57:18;2.72;;;2.50;;
32876;SDS011;19226;51.600;8.034;2023-05-23T08:00:02;7.60;;;2.78;;
32876;SDS011;19226;51.600;8.034;2023-05-23T08:02:58;3.55;;;2.30;;
32876;SDS011;19226;51.600;8.034;2023-05-23T08:05:50;5.68;;;3.13;;
32876;SDS011;19226;51.600;8.034;2023-05-23T08:08:35;7.38;;;3.28;;
32876;SDS011;19226;51.600;8.034;2023-05-23T08:11:22;3.95;;;3.17;;
32876;SDS011;19226;51.600;8.034;2023-05-23T08:14:08;6.75;;;4.35;;
32876;SDS011;19226;51.600;8.034;2023-05-23T08:16:56;6.75;;;3.45;;
32876;SDS011;19226;51.600;8.034;2023-05-23T08:19:43;3.78;;;3.10;;
32876;SDS011;19226;51.600;8.034;2023-05-23T08:22:28;5.47;;;3.30;;
32876;SDS011;19226;51.600;8.034;2023-05-23T08:25:13;8.00;;;3.05;;
32876;SDS011;19226;51.600;8.034;2023-05-23T08:27:58;8.82;;;3.22;;
32876;SDS011;19226;51.600;8.034;2023-05-23T08:31:04;8.98;;;3.33;;
32876;SDS011;19226;51.600;8.034;2023-05-23T08:33:50;5.93;;;3.47;;
32876;SDS011;19226;51.600;8.034;2023-05-23T08:36:34;7.75;;;3.78;;
32876;SDS011;19226;51.600;8.034;2023-05-23T08:39:19;7.43;;;3.85;;
32876;SDS011;19226;51.600;8.034;2023-05-23T08:42:13;9.18;;;3.97;;
32876;SDS011;19226;51.600;8.034;2023-05-23T08:44:58;7.28;;;4.25;;
32876;SDS011;19226;51.600;8.034;2023-05-23T08:47:43;8.23;;;4.82;;
32876;SDS011;19226;51.600;8.034;2023-05-23T08:50:29;6.00;;;4.03;;
32876;SDS011;19226;51.600;8.034;2023-05-23T08:53:16;10.63;;;4.93;;
32876;SDS011;19226;51.600;8.034;2023-05-23T08:56:08;5.18;;;4.38;;
32876;SDS011;19226;51.600;8.034;2023-05-23T08:59:01;10.75;;;4.78;;
32876;SDS011;19226;51.600;8.034;2023-05-23T09:01:47;7.38;;;4.07;;
32876;SDS011;19226;51.600;8.034;2023-05-23T09:04:33;6.93;;;5.32;;
32876;SDS011;19226;51.600;8.034;2023-05-23T09:07:23;9.68;;;5.10;;
32876;SDS011;19226;51.600;8.034;2023-05-23T09:10:10;9.70;;;4.50;;
32876;SDS011;19226;51.600;8.034;2023-05-23T09:12:55;12.30;;;5.10;;
32876;SDS011;19226;51.600;8.034;2023-05-23T09:18:46;11.15;;;4.65;;
32876;SDS011;19226;51.600;8.034;2023-05-23T09:21:33;9.18;;;5.07;;
32876;SDS011;19226;51.600;8.034;2023-05-23T09:24:35;8.07;;;4.55;;
32876;SDS011;19226;51.600;8.034;2023-05-23T09:27:22;11.15;;;4.53;;
32876;SDS011;19226;51.600;8.034;2023-05-23T09:30:09;11.32;;;4.95;;
32876;SDS011;19226;51.600;8.034;2023-05-23T09:32:57;6.93;;;4.65;;
32876;SDS011;19226;51.600;8.034;2023-05-23T09:35:43;8.93;;;3.90;;
32876;SDS011;19226;51.600;8.034;2023-05-23T09:38:29;11.30;;;4.50;;
32876;SDS011;19226;51.600;8.034;2023-05-23T09:41:14;12.93;;;4.82;;
32876;SDS011;19226;51.600;8.034;2023-05-23T09:43:59;5.85;;;4.10;;
32876;SDS011;19226;51.600;8.034;2023-05-23T09:46:52;10.10;;;4.68;;
32876;SDS011;19226;51.600;8.034;2023-05-23T09:49:38;6.60;;;4.65;;
32876;SDS011;19226;51.600;8.034;2023-05-23T09:52:24;12.32;;;5.38;;
32876;SDS011;19226;51.600;8.034;2023-05-23T09:55:09;14.35;;;5.03;;
32876;SDS011;19226;51.600;8.034;2023-05-23T09:57:54;10.68;;;4.65;;
32876;SDS011;19226;51.600;8.034;2023-05-23T10:00:41;11.00;;;4.63;;
32876;SDS011;19226;51.600;8.034;2023-05-23T10:03:33;10.05;;;4.28;;
32876;SDS011;19226;51.600;8.034;2023-05-23T10:06:40;7.28;;;4.10;;
32876;SDS011;19226;51.600;8.034;2023-05-23T10:09:36;8.93;;;4.20;;
32876;SDS011;19226;51.600;8.034;2023-05-23T10:15:15;8.38;;;4.30;;
32876;SDS011;19226;51.600;8.034;2023-05-23T10:18:03;5.88;;;4.15;;
32876;SDS011;19226;51.600;8.034;2023-05-23T10:20:56;10.80;;;4.07;;
32876;SDS011;19226;51.600;8.034;2023-05-23T10:23:53;9.98;;;4.28;;
32876;SDS011;19226;51.600;8.034;2023-05-23T10:26:38;7.40;;;4.53;;
32876;SDS011;19226;51.600;8.034;2023-05-23T10:29:23;5.68;;;4.05;;
32876;SDS011;19226;51.600;8.034;2023-05-23T10:32:08;8.07;;;4.55;;
32876;SDS011;19226;51.600;8.034;2023-05-23T10:38:33;13.40;;;6.03;;
32876;SDS011;19226;51.600;8.034;2023-05-23T10:44:15;20.67;;;6.13;;
32876;SDS011;19226;51.600;8.034;2023-05-23T10:47:06;13.60;;;5.97;;
32876;SDS011;19226;51.600;8.034;2023-05-23T10:49:51;22.10;;;6.82;;
32876;SDS011;19226;51.600;8.034;2023-05-23T10:52:40;10.82;;;6.18;;
32876;SDS011;19226;51.600;8.034;2023-05-23T10:55:25;24.77;;;5.50;;
32876;SDS011;19226;51.600;8.034;2023-05-23T10:58:19;16.23;;;5.38;;
32876;SDS011;19226;51.600;8.034;2023-05-23T11:01:11;20.48;;;5.82;;
32876;SDS011;19226;51.600;8.034;2023-05-23T11:03:58;13.52;;;5.35;;
32876;SDS011;19226;51.600;8.034;2023-05-23T11:06:48;14.30;;;5.75;;
32876;SDS011;19226;51.600;8.034;2023-05-23T11:09:34;13.90;;;5.30;;
32876;SDS011;19226;51.600;8.034;2023-05-23T11:12:34;22.25;;;5.78;;
32876;SDS011;19226;51.600;8.034;2023-05-23T11:15:22;17.15;;;4.60;;
32876;SDS011;19226;51.600;8.034;2023-05-23T11:18:07;8.82;;;4.30;;
32876;SDS011;19226;51.600;8.034;2023-05-23T11:20:51;11.90;;;4.22;;
32876;SDS011;19226;51.600;8.034;2023-05-23T11:23:40;15.93;;;4.50;;
32876;SDS011;19226;51.600;8.034;2023-05-23T11:26:28;9.35;;;4.05;;
32876;SDS011;19226;51.600;8.034;2023-05-23T11:29:15;13.20;;;4.40;;
32876;SDS011;19226;51.600;8.034;2023-05-23T11:31:59;6.97;;;3.88;;
32876;SDS011;19226;51.600;8.034;2023-05-23T11:34:43;14.55;;;4.57;;
32876;SDS011;19226;51.600;8.034;2023-05-23T11:37:29;12.18;;;4.38;;
32876;SDS011;19226;51.600;8.034;2023-05-23T11:40:32;26.42;;;5.03;;
32876;SDS011;19226;51.600;8.034;2023-05-23T11:43:18;14.05;;;4.57;;
32876;SDS011;19226;51.600;8.034;2023-05-23T11:46:07;12.90;;;4.40;;
32876;SDS011;19226;51.600;8.034;2023-05-23T11:48:51;17.10;;;4.47;;
32876;SDS011;19226;51.600;8.034;2023-05-23T11:51:36;9.85;;;3.25;;
32876;SDS011;19226;51.600;8.034;2023-05-23T11:54:24;15.13;;;3.65;;
32876;SDS011;19226;51.600;8.034;2023-05-23T11:57:09;15.82;;;4.38;;
32876;SDS011;19226;51.600;8.034;2023-05-23T11:59:56;12.18;;;4.38;;
32876;SDS011;19226;51.600;8.034;2023-05-23T12:02:41;13.88;;;4.35;;
32876;SDS011;19226;51.600;8.034;2023-05-23T12:05:27;14.77;;;4.30;;
32876;SDS011;19226;51.600;8.034;2023-05-23T12:08:12;12.73;;;4.30;;
32876;SDS011;19226;51.600;8.034;2023-05-23T12:10:58;15.82;;;4.00;;
32876;SDS011;19226;51.600;8.034;2023-05-23T12:13:44;17.08;;;3.88;;
32876;SDS011;19226;51.600;8.034;2023-05-23T12:16:28;18.05;;;4.57;;
32876;SDS011;19226;51.600;8.034;2023-05-23T12:19:15;17.83;;;4.53;;
32876;SDS011;19226;51.600;8.034;2023-05-23T12:22:04;17.65;;;3.90;;
32876;SDS011;19226;51.600;8.034;2023-05-23T12:24:53;20.00;;;4.22;;
32876;SDS011;19226;51.600;8.034;2023-05-23T12:27:40;23.73;;;4.78;;
32876;SDS011;19226;51.600;8.034;2023-05-23T12:30:26;17.17;;;4.15;;
32876;SDS011;19226;51.600;8.034;2023-05-23T12:33:11;12.57;;;3.90;;
32876;SDS011;19226;51.600;8.034;2023-05-23T12:35:56;16.70;;;4.63;;
32876;SDS011;19226;51.600;8.034;2023-05-23T12:38:41;16.35;;;4.25;;
32876;SDS011;19226;51.600;8.034;2023-05-23T12:41:27;28.67;;;4.55;;
32876;SDS011;19226;51.600;8.034;2023-05-23T12:44:14;15.50;;;4.32;;
32876;SDS011;19226;51.600;8.034;2023-05-23T12:46:59;15.63;;;3.80;;
32876;SDS011;19226;51.600;8.034;2023-05-23T12:49:43;14.73;;;3.70;;
32876;SDS011;19226;51.600;8.034;2023-05-23T12:52:29;16.92;;;3.80;;
32876;SDS011;19226;51.600;8.034;2023-05-23T12:55:14;11.25;;;3.63;;
32876;SDS011;19226;51.600;8.034;2023-05-23T12:57:58;14.20;;;3.38;;
32876;SDS011;19226;51.600;8.034;2023-05-23T13:00:43;17.92;;;3.92;;
32876;SDS011;19226;51.600;8.034;2023-05-23T13:03:28;13.20;;;3.55;;
32876;SDS011;19226;51.600;8.034;2023-05-23T13:06:16;14.43;;;3.27;;
32876;SDS011;19226;51.600;8.034;2023-05-23T13:09:00;13.57;;;3.97;;
32876;SDS011;19226;51.600;8.034;2023-05-23T13:11:45;16.95;;;3.60;;
32876;SDS011;19226;51.600;8.034;2023-05-23T13:14:30;12.70;;;3.65;;
32876;SDS011;19226;51.600;8.034;2023-05-23T13:17:14;13.40;;;3.22;;
32876;SDS011;19226;51.600;8.034;2023-05-23T13:19:59;14.50;;;3.60;;
32876;SDS011;19226;51.600;8.034;2023-05-23T13:22:43;16.27;;;3.80;;
32876;SDS011;19226;51.600;8.034;2023-05-23T13:25:28;18.20;;;3.25;;
32876;SDS011;19226;51.600;8.034;2023-05-23T13:28:12;16.55;;;3.30;;
32876;SDS011;19226;51.600;8.034;2023-05-23T13:30:57;17.33;;;3.75;;
32876;SDS011;19226;51.600;8.034;2023-05-23T13:33:41;19.05;;;3.70;;
32876;SDS011;19226;51.600;8.034;2023-05-23T13:36:26;18.40;;;3.22;;
32876;SDS011;19226;51.600;8.034;2023-05-23T13:39:11;9.13;;;2.88;;
32876;SDS011;19226;51.600;8.034;2023-05-23T13:41:56;12.73;;;3.22;;
32876;SDS011;19226;51.600;8.034;2023-05-23T13:44:40;13.20;;;3.30;;
32876;SDS011;19226;51.600;8.034;2023-05-23T13:47:24;10.10;;;3.13;;
32876;SDS011;19226;51.600;8.034;2023-05-23T13:50:09;13.00;;;4.03;;
32876;SDS011;19226;51.600;8.034;2023-05-23T13:52:54;15.55;;;3.75;;
32876;SDS011;19226;51.600;8.034;2023-05-23T13:55:39;13.25;;;3.45;;
32876;SDS011;19226;51.600;8.034;2023-05-23T13:58:23;28.38;;;4.22;;
32876;SDS011;19226;51.600;8.034;2023-05-23T14:01:08;12.10;;;3.05;;
32876;SDS011;19226;51.600;8.034;2023-05-23T14:03:52;13.50;;;3.35;;
32876;SDS011;19226;51.600;8.034;2023-05-23T14:06:37;12.07;;;3.65;;
32876;SDS011;19226;51.600;8.034;2023-05-23T14:09:22;11.40;;;3.17;;
32876;SDS011;19226;51.600;8.034;2023-05-23T14:12:06;10.82;;;3.13;;
32876;SDS011;19226;51.600;8.034;2023-05-23T14:14:51;15.73;;;4.00;;
32876;SDS011;19226;51.600;8.034;2023-05-23T14:17:36;14.20;;;3.00;;
32876;SDS011;19226;51.600;8.034;2023-05-23T14:20:21;17.55;;;3.35;;
32876;SDS011;19226;51.600;8.034;2023-05-23T14:23:06;14.13;;;4.00;;
32876;SDS011;19226;51.600;8.034;2023-05-23T14:25:50;19.83;;;3.40;;
32876;SDS011;19226;51.600;8.034;2023-05-23T14:28:35;13.05;;;3.20;;
32876;SDS011;19226;51.600;8.034;2023-05-23T14:31:19;9.23;;;3.50;;
32876;SDS011;19226;51.600;8.034;2023-05-23T14:34:04;19.67;;;4.03;;
32876;SDS011;19226;51.600;8.034;2023-05-23T14:36:49;13.50;;;3.40;;
32876;SDS011;19226;51.600;8.034;2023-05-23T14:39:34;12.88;;;3.10;;
32876;SDS011;19226;51.600;8.034;2023-05-23T14:42:18;12.10;;;3.33;;
32876;SDS011;19226;51.600;8.034;2023-05-23T14:45:03;12.63;;;3.03;;
32876;SDS011;19226;51.600;8.034;2023-05-23T14:47:48;15.38;;;2.92;;
32876;SDS011;19226;51.600;8.034;2023-05-23T14:50:32;12.98;;;2.95;;
32876;SDS011;19226;51.600;8.034;2023-05-23T14:53:17;9.88;;;2.65;;
32876;SDS011;19226;51.600;8.034;2023-05-23T14:56:05;7.72;;;2.55;;
32876;SDS011;19226;51.600;8.034;2023-05-23T14:58:49;7.82;;;3.15;;
32876;SDS011;19226;51.600;8.034;2023-05-23T15:01:34;10.25;;;2.92;;
32876;SDS011;19226;51.600;8.034;2023-05-23T15:04:18;7.88;;;2.50;;
32876;SDS011;19226;51.600;8.034;2023-05-23T15:07:03;7.85;;;2.63;;
32876;SDS011;19226;51.600;8.034;2023-05-23T15:09:47;14.20;;;3.83;;
32876;SDS011;19226;51.600;8.034;2023-05-23T15:12:32;10.57;;;2.95;;
32876;SDS011;19226;51.600;8.034;2023-05-23T15:15:17;10.13;;;3.25;;
32876;SDS011;19226;51.600;8.034;2023-05-23T15:18:05;8.02;;;2.47;;
32876;SDS011;19226;51.600;8.034;2023-05-23T15:20:52;11.95;;;2.95;;
32876;SDS011;19226;51.600;8.034;2023-05-23T15:23:37;10.65;;;3.78;;
32876;SDS011;19226;51.600;8.034;2023-05-23T15:26:22;10.68;;;2.75;;
32876;SDS011;19226;51.600;8.034;2023-05-23T15:29:06;14.65;;;2.95;;
32876;SDS011;19226;51.600;8.034;2023-05-23T15:31:51;10.20;;;2.85;;
32876;SDS011;19226;51.600;8.034;2023-05-23T15:34:36;12.20;;;3.00;;
32876;SDS011;19226;51.600;8.034;2023-05-23T15:37:21;16.63;;;3.45;;
32876;SDS011;19226;51.600;8.034;2023-05-23T15:40:05;10.93;;;2.25;;
32876;SDS011;19226;51.600;8.034;2023-05-23T15:42:50;15.13;;;3.78;;
32876;SDS011;19226;51.600;8.034;2023-05-23T15:45:35;8.30;;;2.47;;
32876;SDS011;19226;51.600;8.034;2023-05-23T15:48:19;10.18;;;2.42;;
32876;SDS011;19226;51.600;8.034;2023-05-23T15:51:04;13.52;;;2.97;;
32876;SDS011;19226;51.600;8.034;2023-05-23T15:53:48;7.20;;;2.78;;
32876;SDS011;19226;51.600;8.034;2023-05-23T15:56:33;7.80;;;2.90;;
32876;SDS011;19226;51.600;8.034;2023-05-23T15:59:18;15.75;;;3.25;;
32876;SDS011;19226;51.600;8.034;2023-05-23T16:02:02;10.80;;;2.60;;
32876;SDS011;19226;51.600;8.034;2023-05-23T16:04:48;13.48;;;2.97;;
32876;SDS011;19226;51.600;8.034;2023-05-23T16:07:33;13.73;;;3.50;;
32876;SDS011;19226;51.600;8.034;2023-05-23T16:10:18;12.75;;;3.03;;
32876;SDS011;19226;51.600;8.034;2023-05-23T16:13:02;13.05;;;3.15;;
32876;SDS011;19226;51.600;8.034;2023-05-23T16:15:47;16.23;;;2.85;;
32876;SDS011;19226;51.600;8.034;2023-05-23T16:18:31;16.27;;;3.58;;
32876;SDS011;19226;51.600;8.034;2023-05-23T16:21:16;18.20;;;3.13;;
32876;SDS011;19226;51.600;8.034;2023-05-23T16:24:03;12.20;;;2.97;;
32876;SDS011;19226;51.600;8.034;2023-05-23T16:26:48;15.52;;;3.17;;
32876;SDS011;19226;51.600;8.034;2023-05-23T16:29:32;11.25;;;2.70;;
32876;SDS011;19226;51.600;8.034;2023-05-23T16:32:17;13.00;;;2.83;;
32876;SDS011;19226;51.600;8.034;2023-05-23T16:35:01;14.00;;;2.72;;
32876;SDS011;19226;51.600;8.034;2023-05-23T16:37:46;8.50;;;2.30;;
32876;SDS011;19226;51.600;8.034;2023-05-23T16:40:31;9.07;;;2.70;;
32876;SDS011;19226;51.600;8.034;2023-05-23T16:43:15;16.90;;;3.25;;
32876;SDS011;19226;51.600;8.034;2023-05-23T16:46:00;20.48;;;2.65;;
32876;SDS011;19226;51.600;8.034;2023-05-23T16:48:44;10.02;;;2.17;;
32876;SDS011;19226;51.600;8.034;2023-05-23T16:51:29;13.65;;;2.85;;